Time;durP1;ratioP1;P1;durP2;ratioP2;P2;SDS_P1;SDS_P2;PMS_P1;PMS_P2;Temp;Humidity;BMP_temperature;BMP_pressure;BME280_temperature;BME280_humidity;BME280_pressure;Samples;Min_cycle;Max_cycle;Signal;HPM_P1;HPM_P2
2022/08/25 00:00:02;;;;;;;;;;;23.00;82.10;23.00;99390.00;;;;344397;28;90900;-91
2022/08/25 00:00:14;;;;;;;;;;;23.00;82.10;23.00;99397.00;;;;347604;27;83383;-91
2022/08/25 00:00:26;;;;;;;;;;;23.00;82.80;23.00;99388.00;;;;345948;28;90605;-91
2022/08/25 00:00:42;;;;;;;;;;;23.00;82.70;23.10;99392.00;;;;347580;27;82557;-91
2022/08/25 00:00:54;;;;;;;;;;;23.00;81.50;23.10;99389.00;;;;348413;27;89545;-91
2022/08/25 00:01:15;;;;;;;;;;;23.00;81.30;23.10;99390.00;;;;346278;28;83384;-91
2022/08/25 00:01:30;;;;;;;;;;;23.00;81.00;23.00;99391.00;;;;347175;27;91244;-91
2022/08/25 00:01:45;;;;;;;;;;;23.00;81.70;23.00;99396.00;;;;347534;28;83511;-91
2022/08/25 00:02:00;;;;;;;;;;;23.00;81.70;23.00;99404.00;;;;344483;28;91230;-91
2022/08/25 00:02:15;;;;;;;;;;;23.00;81.30;23.10;99397.00;;;;348865;27;83478;-91
2022/08/25 00:02:28;;;;;;;;;;;23.00;80.70;23.20;99402.00;;;;348493;27;90516;-91
2022/08/25 00:02:40;;;;;;;;;;;23.00;81.30;23.30;99396.00;;;;347574;28;82679;-91
2022/08/25 00:03:06;;;;;;;;;;;23.00;81.30;23.10;99396.00;;;;348364;27;90596;-91
2022/08/25 00:03:18;;;;;;;;;;;23.00;81.90;23.10;99393.00;;;;344973;28;82460;-91
2022/08/25 00:03:32;;;;;;;;;;;23.00;81.60;23.20;99394.00;;;;347204;28;90629;-91
2022/08/25 00:03:51;;;;;;;;;;;23.00;81.20;23.20;99400.00;;;;346064;28;83458;-91
2022/08/25 00:04:05;;;;;;;;;;;23.00;80.90;23.30;99397.00;;;;345648;28;90913;-91
2022/08/25 00:04:17;;;;;;;;;;;23.00;81.00;23.20;99399.00;;;;344745;28;82821;-91
2022/08/25 00:04:29;;;;;;;;;;;23.00;81.80;23.10;99389.00;;;;347335;28;91347;-91
2022/08/25 00:04:41;;;;;;;;;;;23.00;81.90;23.00;99396.00;;;;345965;28;83394;-90
2022/08/25 00:04:54;;;;;;;;;;;23.00;81.90;23.00;99392.00;;;;345829;28;91574;-91
2022/08/25 00:05:07;;;;;;;;;;;23.00;81.80;23.10;99385.00;;;;346290;28;83423;-91
2022/08/25 00:05:20;;;;;;;;;;;23.00;81.30;23.10;99395.00;;;;345553;28;90571;-91
2022/08/25 00:05:32;;;;;;;;;;;23.00;81.30;23.00;99388.00;;;;347612;28;83237;-91
2022/08/25 00:05:44;;;;;;;;;;;23.00;81.40;23.00;99392.00;;;;347255;28;92041;-91
2022/08/25 00:05:56;;;;;;;;;;;23.00;82.00;22.90;99389.00;;;;344957;28;83669;-91
2022/08/25 00:06:08;;;;;;;;;;;23.00;82.40;22.90;99391.00;;;;349705;27;91943;-91
2022/08/25 00:06:20;;;;;;;;;;;23.00;82.70;23.00;99384.00;;;;347722;28;83416;-91
2022/08/25 00:06:32;;;;;;;;;;;23.00;82.40;23.00;99390.00;;;;345685;28;90572;-90
2022/08/25 00:06:44;;;;;;;;;;;23.00;81.70;23.10;99386.00;;;;347289;28;83550;-91
2022/08/25 00:06:56;;;;;;;;;;;23.00;81.40;23.10;99379.00;;;;344284;28;90718;-91
2022/08/25 00:07:13;;;;;;;;;;;23.00;81.40;23.10;99394.00;;;;346342;28;83344;-90
2022/08/25 00:07:30;;;;;;;;;;;23.00;81.90;23.00;99390.00;;;;345926;28;91665;-91
2022/08/25 00:07:41;;;;;;;;;;;23.00;82.30;23.00;99382.00;;;;346373;28;82318;-90
2022/08/25 00:07:53;;;;;;;;;;;23.00;82.40;22.90;99380.00;;;;347248;28;91996;-90
2022/08/25 00:08:06;;;;;;;;;;;22.90;82.40;22.80;99381.00;;;;347641;28;83503;-91
2022/08/25 00:08:18;;;;;;;;;;;22.90;82.20;22.80;99388.00;;;;350015;27;93197;-91
2022/08/25 00:08:30;;;;;;;;;;;22.90;82.00;22.90;99380.00;;;;346258;28;83515;-91
2022/08/25 00:08:42;;;;;;;;;;;22.90;81.90;22.90;99377.00;;;;348541;27;91652;-91
2022/08/25 00:08:58;;;;;;;;;;;22.90;82.30;22.90;99385.00;;;;347719;27;83876;-92
2022/08/25 00:09:11;;;;;;;;;;;22.90;82.10;23.00;99381.00;;;;347161;28;91036;-91
2022/08/25 00:09:24;;;;;;;;;;;22.90;82.30;22.90;99382.00;;;;344879;28;82355;-91
2022/08/25 00:09:36;;;;;;;;;;;22.90;82.40;23.00;99379.00;;;;348688;27;90611;-91
2022/08/25 00:09:47;;;;;;;;;;;22.90;81.60;23.00;99382.00;;;;347716;28;83287;-91
2022/08/25 00:09:59;;;;;;;;;;;22.90;81.40;23.00;99374.00;;;;344520;28;90297;-91
2022/08/25 00:10:11;;;;;;;;;;;22.90;81.50;22.90;99383.00;;;;346345;28;83392;-91
2022/08/25 00:10:23;;;;;;;;;;;22.90;81.80;23.10;99380.00;;;;346984;28;92743;-91
2022/08/25 00:10:36;;;;;;;;;;;22.90;81.70;23.20;99378.00;;;;344903;28;83529;-90
2022/08/25 00:10:48;;;;;;;;;;;22.90;81.80;23.20;99389.00;;;;345746;28;91549;-91
2022/08/25 00:11:21;;;;;;;;;;;22.90;81.60;23.10;99383.00;;;;349096;27;83311;-91
2022/08/25 00:11:33;;;;;;;;;;;23.00;82.00;23.10;99382.00;;;;345776;28;90092;-90
2022/08/25 00:11:47;;;;;;;;;;;22.90;81.50;23.10;99374.00;;;;347704;28;82416;-91
2022/08/25 00:12:00;;;;;;;;;;;23.00;81.90;23.00;99378.00;;;;348579;27;91428;-91
2022/08/25 00:12:11;;;;;;;;;;;22.90;81.80;23.00;99379.00;;;;346151;28;82521;-90
2022/08/25 00:12:24;;;;;;;;;;;22.90;81.30;23.10;99378.00;;;;347023;28;92329;-91
2022/08/25 00:12:36;;;;;;;;;;;22.90;80.90;23.20;99372.00;;;;346278;28;83392;-91
2022/08/25 00:12:48;;;;;;;;;;;22.90;81.20;23.20;99375.00;;;;345758;28;91556;-91
2022/08/25 00:13:00;;;;;;;;;;;23.00;81.70;23.00;99372.00;;;;347661;28;83365;-91
2022/08/25 00:13:12;;;;;;;;;;;23.00;82.50;22.90;99372.00;;;;347202;28;90254;-91
2022/08/25 00:13:24;;;;;;;;;;;22.90;82.70;22.80;99368.00;;;;346276;28;82484;-90
2022/08/25 00:13:40;;;;;;;;;;;22.90;82.70;22.70;99373.00;;;;343140;28;91611;-91
2022/08/25 00:13:55;;;;;;;;;;;22.90;82.80;22.70;99373.00;;;;347688;28;82523;-91
2022/08/25 00:14:10;;;;;;;;;;;22.90;83.10;22.80;99371.00;;;;347163;27;90585;-91
2022/08/25 00:14:24;;;;;;;;;;;22.90;82.60;22.90;99372.00;;;;345989;28;83509;-91
2022/08/25 00:14:36;;;;;;;;;;;22.90;82.00;22.90;99373.00;;;;348484;27;87733;-91
2022/08/25 00:14:48;;;;;;;;;;;22.90;81.50;22.80;99375.00;;;;349010;27;82270;-91
2022/08/25 00:15:00;;;;;;;;;;;22.90;82.40;22.80;99371.00;;;;347242;28;91571;-91
2022/08/25 00:15:12;;;;;;;;;;;22.90;82.90;22.80;99366.00;;;;349147;27;83375;-91
2022/08/25 00:15:24;;;;;;;;;;;22.80;83.00;22.80;99376.00;;;;347231;28;89879;-91
2022/08/25 00:15:37;;;;;;;;;;;22.80;82.60;22.90;99371.00;;;;346350;28;82494;-91
2022/08/25 00:15:49;;;;;;;;;;;22.80;82.10;23.00;99361.00;;;;345854;28;91452;-91
2022/08/25 00:16:01;;;;;;;;;;;22.80;82.40;22.90;99371.00;;;;346198;28;83324;-91
2022/08/25 00:16:14;;;;;;;;;;;22.80;82.40;22.90;99368.00;;;;344449;28;90379;-91
2022/08/25 00:16:26;;;;;;;;;;;22.80;83.00;22.80;99370.00;;;;346241;28;83406;-91
2022/08/25 00:16:38;;;;;;;;;;;22.80;82.50;23.00;99374.00;;;;347310;28;91292;-91
2022/08/25 00:16:50;;;;;;;;;;;22.80;82.40;23.10;99365.00;;;;346177;28;83483;-91
2022/08/25 00:17:02;;;;;;;;;;;22.90;82.60;23.00;99370.00;;;;345743;28;92983;-91
2022/08/25 00:17:14;;;;;;;;;;;22.90;82.90;22.90;99376.00;;;;344704;28;82430;-91
2022/08/25 00:17:26;;;;;;;;;;;22.90;83.30;22.90;99377.00;;;;345860;28;90868;-91
2022/08/25 00:17:38;;;;;;;;;;;22.90;83.10;22.80;99370.00;;;;347636;28;83419;-91
2022/08/25 00:17:50;;;;;;;;;;;22.80;83.40;22.90;99373.00;;;;347209;28;91737;-92
2022/08/25 00:18:02;;;;;;;;;;;22.80;82.80;22.90;99372.00;;;;349067;27;83337;-92
2022/08/25 00:18:21;;;;;;;;;;;22.80;82.90;22.90;99373.00;;;;345795;28;92082;-91
2022/08/25 00:18:33;;;;;;;;;;;22.80;82.40;22.90;99370.00;;;;346309;28;83299;-91
2022/08/25 00:18:48;;;;;;;;;;;22.80;82.30;22.90;99372.00;;;;348733;27;90547;-91
2022/08/25 00:19:04;;;;;;;;;;;22.80;82.30;22.80;99367.00;;;;347824;28;82315;-91
2022/08/25 00:19:21;;;;;;;;;;;22.80;82.60;22.90;99365.00;;;;344083;28;92161;-91
2022/08/25 00:19:34;;;;;;;;;;;22.80;82.00;22.80;99366.00;;;;347706;28;82471;-91
2022/08/25 00:19:46;;;;;;;;;;;22.80;83.40;22.70;99365.00;;;;348677;27;90765;-91
2022/08/25 00:19:58;;;;;;;;;;;22.80;83.50;22.70;99363.00;;;;347414;28;83603;-91
2022/08/25 00:20:10;;;;;;;;;;;22.70;83.10;22.70;99360.00;;;;347098;27;90058;-91
2022/08/25 00:20:22;;;;;;;;;;;22.80;82.90;22.70;99367.00;;;;347691;28;82415;-91
2022/08/25 00:20:34;;;;;;;;;;;22.70;83.20;22.70;99361.00;;;;345843;28;91113;-91
2022/08/25 00:20:47;;;;;;;;;;;22.80;83.30;22.60;99369.00;;;;344817;28;83316;-92
2022/08/25 00:20:59;;;;;;;;;;;22.70;83.60;22.60;99365.00;;;;344284;28;91614;-92
2022/08/25 00:21:12;;;;;;;;;;;22.70;83.60;22.60;99367.00;;;;346231;28;84078;-91
2022/08/25 00:21:24;;;;;;;;;;;22.70;83.60;22.60;99366.00;;;;345692;28;92406;-92
2022/08/25 00:21:36;;;;;;;;;;;22.70;83.30;22.60;99367.00;;;;347690;28;83279;-91
2022/08/25 00:21:48;;;;;;;;;;;22.70;83.30;22.60;99361.00;;;;348566;27;91486;-91
2022/08/25 00:22:01;;;;;;;;;;;22.70;83.40;22.60;99356.00;;;;347620;28;83470;-92
2022/08/25 00:22:13;;;;;;;;;;;22.70;83.00;22.60;99367.00;;;;347009;27;90363;-92
2022/08/25 00:22:24;;;;;;;;;;;22.70;83.10;22.60;99359.00;;;;344906;28;82441;-91
2022/08/25 00:22:36;;;;;;;;;;;22.70;83.00;22.60;99367.00;;;;345919;28;89119;-92
2022/08/25 00:22:48;;;;;;;;;;;22.70;82.70;22.70;99358.00;;;;349021;27;83436;-92
2022/08/25 00:23:00;;;;;;;;;;;22.70;82.40;22.60;99362.00;;;;348587;27;91603;-92
2022/08/25 00:23:12;;;;;;;;;;;22.70;83.30;22.60;99358.00;;;;344877;28;83410;-92
2022/08/25 00:23:24;;;;;;;;;;;22.70;83.20;22.70;99353.00;;;;347204;28;92312;-92
2022/08/25 00:23:36;;;;;;;;;;;22.70;82.50;22.70;99361.00;;;;346237;28;83356;-91
2022/08/25 00:23:48;;;;;;;;;;;22.70;82.40;22.70;99357.00;;;;345932;28;90935;-92
2022/08/25 00:24:01;;;;;;;;;;;22.70;82.70;22.60;99362.00;;;;346216;28;83352;-92
2022/08/25 00:24:14;;;;;;;;;;;22.70;83.20;22.60;99364.00;;;;345670;28;91896;-91
2022/08/25 00:24:26;;;;;;;;;;;22.70;82.80;22.60;99356.00;;;;347697;28;82455;-92
2022/08/25 00:24:38;;;;;;;;;;;22.70;83.10;22.50;99363.00;;;;345880;28;91342;-92
2022/08/25 00:24:50;;;;;;;;;;;22.70;83.90;22.50;99364.00;;;;347510;28;82524;-91
2022/08/25 00:25:02;;;;;;;;;;;22.70;83.40;22.50;99366.00;;;;345822;28;89332;-92
2022/08/25 00:25:14;;;;;;;;;;;22.60;83.10;22.60;99367.00;;;;347560;28;83369;-92
2022/08/25 00:25:26;;;;;;;;;;;22.60;83.20;22.60;99361.00;;;;348599;27;91329;-92
2022/08/25 00:25:39;;;;;;;;;;;22.60;83.30;22.60;99360.00;;;;346281;28;82296;-92
2022/08/25 00:25:50;;;;;;;;;;;22.60;82.60;22.60;99361.00;;;;347263;28;90314;-92
2022/08/25 00:26:02;;;;;;;;;;;22.60;82.90;22.50;99356.00;;;;346181;28;83552;-92
2022/08/25 00:26:14;;;;;;;;;;;22.60;83.20;22.50;99359.00;;;;345639;28;90538;-92
2022/08/25 00:26:27;;;;;;;;;;;22.60;83.10;22.60;99359.00;;;;347742;28;82384;-91
2022/08/25 00:26:40;;;;;;;;;;;22.60;82.80;22.60;99365.00;;;;347274;28;90731;-92
2022/08/25 00:26:55;;;;;;;;;;;22.60;82.90;22.60;99362.00;;;;347691;27;82479;-91
2022/08/25 00:27:07;;;;;;;;;;;22.60;83.30;22.70;99356.00;;;;347262;28;91313;-91
2022/08/25 00:27:19;;;;;;;;;;;22.60;83.00;22.60;99360.00;;;;346192;28;83477;-92
2022/08/25 00:27:30;;;;;;;;;;;22.60;83.50;22.60;99358.00;;;;347141;27;92739;-91
2022/08/25 00:27:42;;;;;;;;;;;22.60;83.80;22.50;99357.00;;;;349136;27;83400;-91
2022/08/25 00:27:57;;;;;;;;;;;22.60;83.90;22.50;99353.00;;;;345822;28;91120;-92
2022/08/25 00:28:09;;;;;;;;;;;22.60;83.70;22.60;99351.00;;;;347385;27;83422;-91
2022/08/25 00:28:21;;;;;;;;;;;22.60;83.50;22.50;99360.00;;;;345901;28;91551;-92
2022/08/25 00:28:34;;;;;;;;;;;22.60;83.60;22.60;99345.00;;;;347723;28;82570;-92
2022/08/25 00:28:46;;;;;;;;;;;22.50;83.40;22.60;99352.00;;;;347209;28;90481;-91
2022/08/25 00:28:58;;;;;;;;;;;22.50;82.90;22.70;99351.00;;;;347686;28;83472;-91
2022/08/25 00:29:13;;;;;;;;;;;22.50;82.60;22.70;99347.00;;;;345864;28;91425;-92
2022/08/25 00:29:25;;;;;;;;;;;22.50;82.30;22.70;99347.00;;;;344888;28;83426;-92
2022/08/25 00:29:37;;;;;;;;;;;22.50;82.50;22.70;99340.00;;;;348573;27;92026;-92
2022/08/25 00:29:49;;;;;;;;;;;22.50;82.30;22.70;99349.00;;;;347511;28;83533;-92
2022/08/25 00:30:01;;;;;;;;;;;22.50;83.00;22.60;99346.00;;;;347203;28;91512;-91
2022/08/25 00:30:15;;;;;;;;;;;22.50;83.00;22.60;99346.00;;;;346166;28;82502;-92
2022/08/25 00:30:27;;;;;;;;;;;22.50;83.10;22.60;99342.00;;;;347214;28;91311;-92
2022/08/25 00:30:39;;;;;;;;;;;22.50;82.90;22.70;99351.00;;;;349122;27;83430;-92
2022/08/25 00:30:51;;;;;;;;;;;22.60;82.60;22.60;99348.00;;;;347193;28;91714;-92
2022/08/25 00:31:03;;;;;;;;;;;22.50;83.30;22.60;99341.00;;;;348921;27;83380;-92
2022/08/25 00:31:16;;;;;;;;;;;22.60;83.70;22.50;99344.00;;;;347240;28;90499;-92
2022/08/25 00:31:29;;;;;;;;;;;22.60;84.00;22.50;99346.00;;;;347539;27;83321;-92
2022/08/25 00:31:51;;;;;;;;;;;22.50;83.60;22.50;99350.00;;;;345782;28;91346;-92
2022/08/25 00:32:04;;;;;;;;;;;22.50;83.30;22.50;99350.00;;;;347226;28;83484;-92
2022/08/25 00:32:17;;;;;;;;;;;22.50;83.30;22.50;99344.00;;;;347190;28;91239;-91
2022/08/25 00:32:28;;;;;;;;;;;22.50;83.20;22.60;99340.00;;;;347672;28;82490;-92
2022/08/25 00:32:40;;;;;;;;;;;22.50;83.00;22.60;99342.00;;;;347193;28;90276;-92
2022/08/25 00:32:59;;;;;;;;;;;22.50;82.30;22.60;99346.00;;;;349086;27;82473;-92
2022/08/25 00:33:11;;;;;;;;;;;22.50;82.60;22.60;99344.00;;;;344513;28;90458;-93
2022/08/25 00:33:23;;;;;;;;;;;22.50;82.70;22.70;99340.00;;;;346235;28;83342;-92
2022/08/25 00:33:35;;;;;;;;;;;22.50;82.40;22.80;99340.00;;;;345803;28;90707;-92
2022/08/25 00:33:47;;;;;;;;;;;22.50;82.80;22.80;99342.00;;;;347684;28;82455;-92
2022/08/25 00:34:00;;;;;;;;;;;22.50;82.90;22.70;99343.00;;;;345894;28;91124;-92
2022/08/25 00:34:16;;;;;;;;;;;22.50;83.10;22.70;99348.00;;;;347503;27;83500;-92
2022/08/25 00:34:33;;;;;;;;;;;22.50;83.00;22.80;99349.00;;;;348656;27;90037;-92
2022/08/25 00:34:45;;;;;;;;;;;22.60;82.70;22.70;99346.00;;;;347560;28;83501;-92
2022/08/25 00:34:57;;;;;;;;;;;22.60;82.80;22.70;99344.00;;;;347332;28;90099;-92
2022/08/25 00:35:09;;;;;;;;;;;22.50;82.30;22.70;99344.00;;;;347799;28;82453;-92
2022/08/25 00:35:22;;;;;;;;;;;22.60;82.20;22.70;99345.00;;;;347212;28;90785;-92
2022/08/25 00:35:34;;;;;;;;;;;22.60;82.70;22.70;99352.00;;;;347568;27;83472;-91
2022/08/25 00:35:46;;;;;;;;;;;22.60;82.40;22.70;99354.00;;;;344481;28;91617;-91
2022/08/25 00:35:58;;;;;;;;;;;22.60;82.40;22.70;99343.00;;;;346070;28;83314;-92
2022/08/25 00:36:11;;;;;;;;;;;22.60;82.00;22.60;99350.00;;;;348473;27;90326;-92
2022/08/25 00:36:23;;;;;;;;;;;22.60;82.20;22.70;99346.00;;;;347698;28;83384;-92
2022/08/25 00:36:35;;;;;;;;;;;22.60;82.20;22.70;99348.00;;;;345925;28;90095;-92
2022/08/25 00:36:49;;;;;;;;;;;22.60;82.20;22.70;99349.00;;;;347651;27;83373;-91
2022/08/25 00:37:02;;;;;;;;;;;22.60;82.90;22.70;99348.00;;;;345812;28;91654;-92
2022/08/25 00:37:15;;;;;;;;;;;22.60;82.40;22.70;99348.00;;;;346135;28;83361;-92
2022/08/25 00:37:27;;;;;;;;;;;22.60;82.40;22.60;99347.00;;;;345572;28;90977;-92
2022/08/25 00:37:39;;;;;;;;;;;22.50;82.20;22.60;99347.00;;;;347659;28;83473;-92
2022/08/25 00:37:51;;;;;;;;;;;22.60;82.90;22.50;99349.00;;;;347278;28;92063;-92
2022/08/25 00:38:03;;;;;;;;;;;22.60;83.00;22.50;99348.00;;;;346209;28;83258;-92
2022/08/25 00:38:15;;;;;;;;;;;22.60;83.10;22.50;99347.00;;;;344371;28;91879;-92
2022/08/25 00:38:27;;;;;;;;;;;22.60;83.30;22.50;99349.00;;;;347704;28;82485;-92
2022/08/25 00:38:39;;;;;;;;;;;22.50;83.00;22.60;99354.00;;;;345718;28;88752;-92
2022/08/25 00:38:51;;;;;;;;;;;22.50;82.60;22.60;99361.00;;;;347653;27;82508;-92
2022/08/25 00:39:04;;;;;;;;;;;22.50;82.10;22.60;99344.00;;;;345633;28;90748;-92
2022/08/25 00:39:16;;;;;;;;;;;22.50;82.20;22.60;99351.00;;;;349117;27;83389;-92
2022/08/25 00:39:28;;;;;;;;;;;22.50;82.20;22.60;99351.00;;;;347174;28;91553;-92
2022/08/25 00:39:40;;;;;;;;;;;22.60;82.20;22.60;99354.00;;;;344996;28;82451;-92
2022/08/25 00:39:51;;;;;;;;;;;22.50;82.20;22.60;99355.00;;;;345851;28;91448;-92
2022/08/25 00:40:04;;;;;;;;;;;22.50;82.90;22.50;99354.00;;;;347543;28;82602;-92
2022/08/25 00:40:16;;;;;;;;;;;22.50;83.30;22.50;99352.00;;;;345885;28;91862;-92
2022/08/25 00:40:28;;;;;;;;;;;22.50;83.40;22.50;99357.00;;;;346222;28;83164;-92
2022/08/25 00:40:40;;;;;;;;;;;22.50;83.20;22.50;99355.00;;;;347306;28;91767;-92
2022/08/25 00:41:04;;;;;;;;;;;22.50;82.90;22.50;99359.00;;;;347817;27;82367;-92
2022/08/25 00:41:19;;;;;;;;;;;22.50;82.90;22.60;99358.00;;;;345869;28;91456;-92
2022/08/25 00:41:32;;;;;;;;;;;22.50;82.10;22.60;99353.00;;;;347617;27;83433;-92
2022/08/25 00:41:44;;;;;;;;;;;22.50;81.90;22.50;99358.00;;;;351458;27;91209;-92
2022/08/25 00:41:56;;;;;;;;;;;22.50;83.00;22.50;99363.00;;;;346258;28;83373;-92
2022/08/25 00:42:08;;;;;;;;;;;22.50;83.50;22.60;99347.00;;;;347244;28;90596;-92
2022/08/25 00:42:27;;;;;;;;;;;22.50;83.20;22.60;99353.00;;;;347684;28;83898;-92
2022/08/25 00:42:40;;;;;;;;;;;22.50;82.60;22.60;99354.00;;;;348557;27;92223;-92
2022/08/25 00:42:51;;;;;;;;;;;22.50;82.40;22.60;99356.00;;;;347612;28;83388;-92
2022/08/25 00:43:05;;;;;;;;;;;22.50;82.90;22.60;99353.00;;;;347277;28;91788;-91
2022/08/25 00:43:16;;;;;;;;;;;22.50;82.80;22.50;99348.00;;;;346347;28;83307;-92
2022/08/25 00:43:36;;;;;;;;;;;22.50;83.30;22.50;99356.00;;;;345749;28;91231;-91
2022/08/25 00:43:56;;;;;;;;;;;22.50;83.60;22.60;99355.00;;;;347707;28;82287;-91
2022/08/25 00:44:10;;;;;;;;;;;22.50;82.80;22.60;99349.00;;;;344452;28;91629;-92
2022/08/25 00:44:23;;;;;;;;;;;22.50;83.00;22.60;99356.00;;;;346326;28;83335;-92
2022/08/25 00:44:35;;;;;;;;;;;22.50;82.30;22.70;99352.00;;;;347224;28;91293;-92
2022/08/25 00:44:47;;;;;;;;;;;22.50;82.20;22.70;99350.00;;;;347675;28;82522;-92
2022/08/25 00:44:58;;;;;;;;;;;22.50;82.10;22.70;99340.00;;;;345757;28;91018;-91
2022/08/25 00:45:11;;;;;;;;;;;22.50;82.30;22.70;99344.00;;;;349110;27;82519;-92
2022/08/25 00:45:23;;;;;;;;;;;22.50;82.10;22.60;99342.00;;;;345943;28;89770;-92
2022/08/25 00:45:35;;;;;;;;;;;22.50;82.40;22.60;99345.00;;;;346205;28;83511;-92
2022/08/25 00:45:47;;;;;;;;;;;22.50;82.90;22.60;99347.00;;;;347238;28;90068;-92
2022/08/25 00:45:59;;;;;;;;;;;22.50;83.40;22.70;99341.00;;;;347671;28;82583;-92
2022/08/25 00:46:17;;;;;;;;;;;22.50;83.30;22.70;99349.00;;;;348525;27;91812;-92
2022/08/25 00:46:35;;;;;;;;;;;22.50;83.30;22.70;99343.00;;;;348712;27;83429;-92
2022/08/25 00:46:49;;;;;;;;;;;22.50;83.60;22.80;99342.00;;;;348555;27;90434;-91
2022/08/25 00:47:01;;;;;;;;;;;22.50;83.10;22.80;99336.00;;;;346270;28;83368;-92
2022/08/25 00:47:13;;;;;;;;;;;22.60;83.30;22.90;99341.00;;;;348528;27;92670;-91
2022/08/25 00:47:25;;;;;;;;;;;22.60;83.50;22.80;99335.00;;;;346296;28;83332;-92
2022/08/25 00:47:37;;;;;;;;;;;22.50;83.30;22.80;99332.00;;;;345764;28;91262;-92
2022/08/25 00:47:49;;;;;;;;;;;22.50;83.00;22.80;99331.00;;;;349026;27;82302;-92
2022/08/25 00:48:01;;;;;;;;;;;22.50;82.90;22.70;99331.00;;;;348705;27;90260;-91
2022/08/25 00:48:13;;;;;;;;;;;22.60;83.00;22.70;99331.00;;;;346254;28;83353;-92
2022/08/25 00:48:25;;;;;;;;;;;22.60;82.60;22.70;99330.00;;;;348488;27;91330;-92
2022/08/25 00:48:36;;;;;;;;;;;22.60;82.70;22.70;99334.00;;;;347458;28;83504;-92
2022/08/25 00:48:52;;;;;;;;;;;22.60;82.50;22.70;99338.00;;;;344440;28;91968;-92
2022/08/25 00:49:13;;;;;;;;;;;22.60;82.50;22.70;99338.00;;;;349144;27;82441;-92
2022/08/25 00:49:41;;;;;;;;;;;22.60;83.60;22.70;99335.00;;;;345699;28;92707;-93
2022/08/25 00:49:55;;;;;;;;;;;22.60;82.70;22.70;99335.00;;;;346421;28;83394;-92
2022/08/25 00:50:08;;;;;;;;;;;22.60;82.90;22.70;99335.00;;;;348695;27;89465;-92
2022/08/25 00:50:19;;;;;;;;;;;22.60;82.80;22.70;99337.00;;;;347548;28;83910;-92
2022/08/25 00:50:33;;;;;;;;;;;22.60;82.70;22.60;99340.00;;;;345848;28;90413;-92
2022/08/25 00:50:45;;;;;;;;;;;22.60;83.60;22.70;99329.00;;;;347667;28;82503;-91
2022/08/25 00:50:57;;;;;;;;;;;22.50;83.10;22.70;99330.00;;;;347264;28;91692;-92
2022/08/25 00:51:10;;;;;;;;;;;22.50;82.70;22.70;99336.00;;;;346545;28;83314;-92
2022/08/25 00:51:34;;;;;;;;;;;22.60;82.40;22.70;99338.00;;;;345991;28;91332;-91
2022/08/25 00:51:46;;;;;;;;;;;22.50;82.20;22.80;99339.00;;;;346375;28;83329;-92
2022/08/25 00:52:25;;;;;;;;;;;22.60;82.70;22.70;99344.00;;;;344715;28;91319;-92
2022/08/25 00:52:41;;;;;;;;;;;22.60;82.90;22.70;99343.00;;;;343139;28;83251;-91
2022/08/25 00:52:54;;;;;;;;;;;22.60;82.90;22.70;99342.00;;;;347623;28;91503;-92
2022/08/25 00:53:05;;;;;;;;;;;22.60;83.20;22.70;99336.00;;;;346706;28;82573;-92
2022/08/25 00:53:17;;;;;;;;;;;22.50;82.90;22.70;99339.00;;;;347739;28;91942;-91
2022/08/25 00:53:29;;;;;;;;;;;22.50;82.60;22.70;99336.00;;;;348164;28;83413;-91
2022/08/25 00:53:41;;;;;;;;;;;22.60;83.00;22.70;99336.00;;;;347964;28;88720;-91
2022/08/25 00:53:53;;;;;;;;;;;22.60;83.00;22.70;99339.00;;;;349792;27;82484;-91
2022/08/25 00:54:05;;;;;;;;;;;22.60;83.30;22.60;99343.00;;;;346302;28;91524;-91
2022/08/25 00:54:23;;;;;;;;;;;22.60;83.90;22.60;99343.00;;;;348304;28;83472;-91
2022/08/25 00:54:45;;;;;;;;;;;22.60;83.80;22.80;99347.00;;;;346453;28;91025;-92
2022/08/25 00:55:06;;;;;;;;;;;22.60;84.00;22.70;99342.00;;;;349972;27;83332;-91
2022/08/25 00:55:28;;;;;;;;;;;22.60;83.70;22.60;99347.00;;;;349113;27;91808;-91
2022/08/25 00:55:41;;;;;;;;;;;22.60;84.60;22.60;99349.00;;;;346970;28;82493;-91
2022/08/25 00:55:52;;;;;;;;;;;22.60;83.80;22.60;99347.00;;;;347916;28;91466;-91
2022/08/25 00:56:04;;;;;;;;;;;22.60;83.90;22.60;99349.00;;;;349814;27;82433;-90
2022/08/25 00:56:16;;;;;;;;;;;22.60;84.10;22.50;99346.00;;;;349366;27;90491;-91
2022/08/25 00:56:31;;;;;;;;;;;22.60;84.40;22.60;99344.00;;;;347088;28;82589;-91
2022/08/25 00:56:43;;;;;;;;;;;22.60;83.50;22.60;99348.00;;;;346569;28;90961;-91
2022/08/25 00:56:55;;;;;;;;;;;22.50;83.30;22.60;99349.00;;;;349789;27;83403;-91
2022/08/25 00:57:08;;;;;;;;;;;22.50;84.10;22.60;99348.00;;;;349536;27;91169;-91
2022/08/25 00:57:23;;;;;;;;;;;22.50;83.80;22.60;99346.00;;;;347081;28;83376;-91
2022/08/25 00:58:06;;;;;;;;;;;22.50;83.60;22.60;99346.00;;;;345909;28;90942;-91
2022/08/25 00:58:20;;;;;;;;;;;22.50;83.20;22.60;99348.00;;;;349231;27;83238;-91
2022/08/25 00:58:31;;;;;;;;;;;22.50;83.70;22.60;99355.00;;;;346040;28;91984;-92
2022/08/25 00:58:43;;;;;;;;;;;22.50;83.30;22.60;99346.00;;;;343831;28;83425;-92
2022/08/25 00:58:56;;;;;;;;;;;22.50;84.00;22.50;99346.00;;;;347982;28;90099;-90
2022/08/25 00:59:08;;;;;;;;;;;22.50;84.10;22.60;99350.00;;;;347274;28;82640;-90
2022/08/25 00:59:20;;;;;;;;;;;22.50;83.40;22.60;99350.00;;;;347176;28;90154;-90
2022/08/25 00:59:32;;;;;;;;;;;22.50;83.40;22.60;99352.00;;;;349073;27;82663;-92
2022/08/25 00:59:44;;;;;;;;;;;22.50;84.70;22.50;99352.00;;;;347311;28;91135;-91
2022/08/25 00:59:56;;;;;;;;;;;22.50;84.10;22.50;99353.00;;;;347982;28;82379;-92
2022/08/25 01:00:20;;;;;;;;;;;22.50;83.90;22.40;99352.00;;;;347347;28;90384;-90
2022/08/25 01:00:35;;;;;;;;;;;22.50;84.60;22.40;99350.00;;;;347790;28;82495;-91
2022/08/25 01:00:51;;;;;;;;;;;22.50;85.20;22.50;99358.00;;;;346991;28;89798;-91
2022/08/25 01:01:02;;;;;;;;;;;22.50;84.30;22.50;99350.00;;;;348022;28;82463;-91
2022/08/25 01:01:14;;;;;;;;;;;22.50;84.70;22.50;99351.00;;;;347267;28;91730;-91
2022/08/25 01:01:26;;;;;;;;;;;22.50;84.10;22.50;99354.00;;;;346100;28;82509;-91
2022/08/25 01:01:38;;;;;;;;;;;22.50;84.10;22.50;99353.00;;;;347381;28;91421;-91
2022/08/25 01:01:50;;;;;;;;;;;22.50;85.10;22.40;99359.00;;;;348047;28;82503;-91
2022/08/25 01:02:06;;;;;;;;;;;22.50;84.60;22.40;99355.00;;;;346273;28;90775;-90
2022/08/25 01:02:22;;;;;;;;;;;22.50;84.80;22.30;99365.00;;;;347939;28;82305;-91
2022/08/25 01:02:34;;;;;;;;;;;22.50;85.80;22.40;99362.00;;;;348772;28;90462;-92
2022/08/25 01:02:46;;;;;;;;;;;22.40;85.20;22.40;99372.00;;;;349193;28;82262;-90
2022/08/25 01:02:58;;;;;;;;;;;22.40;85.40;22.40;99359.00;;;;347354;28;90659;-91
2022/08/25 01:03:10;;;;;;;;;;;22.40;85.20;22.40;99353.00;;;;346322;28;82471;-91
2022/08/25 01:03:23;;;;;;;;;;;22.50;84.40;22.50;99358.00;;;;345774;28;90080;-91
2022/08/25 01:03:43;;;;;;;;;;;22.40;84.10;22.40;99356.00;;;;346572;28;82405;-91
2022/08/25 01:03:55;;;;;;;;;;;22.40;84.50;22.40;99365.00;;;;346054;28;90609;-90
2022/08/25 01:04:07;;;;;;;;;;;22.40;84.50;22.40;99356.00;;;;347911;28;82396;-91
2022/08/25 01:04:19;;;;;;;;;;;22.40;84.30;22.50;99363.00;;;;346130;28;91299;-91
2022/08/25 01:04:31;;;;;;;;;;;22.40;83.90;22.40;99362.00;;;;349066;28;82482;-92
2022/08/25 01:04:43;;;;;;;;;;;22.40;84.50;22.30;99360.00;;;;348828;28;92207;-90
2022/08/25 01:04:59;;;;;;;;;;;22.40;84.80;22.30;99362.00;;;;345004;28;83388;-91
2022/08/25 01:05:11;;;;;;;;;;;22.40;85.20;22.20;99364.00;;;;347290;28;90721;-91
2022/08/25 01:05:24;;;;;;;;;;;22.40;85.10;22.30;99362.00;;;;347654;28;82396;-91
2022/08/25 01:05:36;;;;;;;;;;;22.40;84.90;22.30;99367.00;;;;347388;28;92314;-92
2022/08/25 01:05:47;;;;;;;;;;;22.40;84.60;22.30;99360.00;;;;348023;28;82274;-91
2022/08/25 01:06:01;;;;;;;;;;;22.40;85.00;22.40;99364.00;;;;346374;28;89741;-91
2022/08/25 01:06:13;;;;;;;;;;;22.40;84.70;22.60;99370.00;;;;349248;28;82476;-90
2022/08/25 01:06:27;;;;;;;;;;;22.40;84.50;22.40;99365.00;;;;344666;28;90941;-91